sensor_id;sensor_type;location;lat;lon;timestamp;P1;durP1;ratioP1;P2;durP2;ratioP2
10295;SDS011;5193;51.032;6.356;2023-11-19T00:00:06;0.80;;;0.70;;
10295;SDS011;5193;51.032;6.356;2023-11-19T00:02:37;1.67;;;0.60;;
10295;SDS011;5193;51.032;6.356;2023-11-19T00:05:04;1.33;;;0.90;;
10295;SDS011;5193;51.032;6.356;2023-11-19T00:07:33;1.00;;;0.70;;
10295;SDS011;5193;51.032;6.356;2023-11-19T00:10:01;3.97;;;1.17;;
10295;SDS011;5193;51.032;6.356;2023-11-19T00:12:35;1.07;;;0.77;;
10295;SDS011;5193;51.032;6.356;2023-11-19T00:15:05;0.90;;;0.90;;
10295;SDS011;5193;51.032;6.356;2023-11-19T00:17:33;1.00;;;0.80;;
10295;SDS011;5193;51.032;6.356;2023-11-19T00:20:00;1.10;;;1.00;;
10295;SDS011;5193;51.032;6.356;2023-11-19T00:22:30;1.10;;;1.00;;
10295;SDS011;5193;51.032;6.356;2023-11-19T00:24:56;1.77;;;0.90;;
10295;SDS011;5193;51.032;6.356;2023-11-19T00:27:22;1.77;;;1.00;;
10295;SDS011;5193;51.032;6.356;2023-11-19T00:29:52;1.17;;;0.70;;
10295;SDS011;5193;51.032;6.356;2023-11-19T00:32:18;0.60;;;0.60;;
10295;SDS011;5193;51.032;6.356;2023-11-19T00:34:47;1.53;;;0.90;;
10295;SDS011;5193;51.032;6.356;2023-11-19T00:37:13;2.47;;;0.60;;
10295;SDS011;5193;51.032;6.356;2023-11-19T00:39:40;0.60;;;0.60;;
10295;SDS011;5193;51.032;6.356;2023-11-19T00:42:11;2.53;;;0.90;;
10295;SDS011;5193;51.032;6.356;2023-11-19T00:44:40;0.80;;;0.80;;
10295;SDS011;5193;51.032;6.356;2023-11-19T00:47:10;1.30;;;1.10;;
10295;SDS011;5193;51.032;6.356;2023-11-19T00:49:37;0.70;;;0.70;;
10295;SDS011;5193;51.032;6.356;2023-11-19T00:52:03;1.00;;;0.90;;
10295;SDS011;5193;51.032;6.356;2023-11-19T00:54:29;1.10;;;0.80;;
10295;SDS011;5193;51.032;6.356;2023-11-19T00:56:54;0.70;;;0.70;;
10295;SDS011;5193;51.032;6.356;2023-11-19T00:59:20;1.03;;;0.80;;
10295;SDS011;5193;51.032;6.356;2023-11-19T01:01:47;0.57;;;0.57;;
10295;SDS011;5193;51.032;6.356;2023-11-19T01:04:13;1.00;;;0.90;;
10295;SDS011;5193;51.032;6.356;2023-11-19T01:06:44;1.83;;;1.00;;
10295;SDS011;5193;51.032;6.356;2023-11-19T01:09:13;1.10;;;0.67;;
10295;SDS011;5193;51.032;6.356;2023-11-19T01:11:39;2.00;;;0.80;;
10295;SDS011;5193;51.032;6.356;2023-11-19T01:14:05;0.97;;;0.90;;
10295;SDS011;5193;51.032;6.356;2023-11-19T01:16:31;1.20;;;0.80;;
10295;SDS011;5193;51.032;6.356;2023-11-19T01:18:56;1.47;;;1.07;;
10295;SDS011;5193;51.032;6.356;2023-11-19T01:21:22;2.73;;;0.70;;
10295;SDS011;5193;51.032;6.356;2023-11-19T01:23:49;1.27;;;0.60;;
10295;SDS011;5193;51.032;6.356;2023-11-19T01:26:15;3.10;;;1.10;;
10295;SDS011;5193;51.032;6.356;2023-11-19T01:28:41;1.33;;;1.10;;
10295;SDS011;5193;51.032;6.356;2023-11-19T01:31:11;2.47;;;1.03;;
10295;SDS011;5193;51.032;6.356;2023-11-19T01:33:48;4.20;;;1.10;;
10295;SDS011;5193;51.032;6.356;2023-11-19T01:36:14;3.20;;;1.33;;
10295;SDS011;5193;51.032;6.356;2023-11-19T01:38:41;2.50;;;1.30;;
10295;SDS011;5193;51.032;6.356;2023-11-19T01:41:12;5.23;;;1.20;;
10295;SDS011;5193;51.032;6.356;2023-11-19T01:43:38;2.80;;;1.47;;
10295;SDS011;5193;51.032;6.356;2023-11-19T01:46:08;3.30;;;1.37;;
10295;SDS011;5193;51.032;6.356;2023-11-19T01:48:39;2.70;;;1.40;;
10295;SDS011;5193;51.032;6.356;2023-11-19T01:54:29;3.80;;;1.43;;
10295;SDS011;5193;51.032;6.356;2023-11-19T01:56:55;6.43;;;1.43;;
10295;SDS011;5193;51.032;6.356;2023-11-19T01:59:22;6.57;;;1.67;;
10295;SDS011;5193;51.032;6.356;2023-11-19T02:01:52;6.67;;;1.70;;
10295;SDS011;5193;51.032;6.356;2023-11-19T02:04:19;8.53;;;1.70;;
10295;SDS011;5193;51.032;6.356;2023-11-19T02:06:47;5.57;;;1.57;;
10295;SDS011;5193;51.032;6.356;2023-11-19T02:09:17;4.60;;;1.67;;
10295;SDS011;5193;51.032;6.356;2023-11-19T02:11:45;7.40;;;1.63;;
10295;SDS011;5193;51.032;6.356;2023-11-19T02:14:16;8.70;;;1.97;;
10295;SDS011;5193;51.032;6.356;2023-11-19T02:16:43;8.57;;;2.20;;
10295;SDS011;5193;51.032;6.356;2023-11-19T02:19:09;4.10;;;1.20;;
10295;SDS011;5193;51.032;6.356;2023-11-19T02:21:38;10.93;;;2.57;;
10295;SDS011;5193;51.032;6.356;2023-11-19T02:24:08;8.43;;;1.83;;
10295;SDS011;5193;51.032;6.356;2023-11-19T02:26:52;7.93;;;2.17;;
10295;SDS011;5193;51.032;6.356;2023-11-19T02:29:21;9.70;;;1.90;;
10295;SDS011;5193;51.032;6.356;2023-11-19T02:31:47;9.93;;;2.30;;
10295;SDS011;5193;51.032;6.356;2023-11-19T02:34:17;9.20;;;2.10;;
10295;SDS011;5193;51.032;6.356;2023-11-19T02:36:42;8.00;;;2.17;;
10295;SDS011;5193;51.032;6.356;2023-11-19T02:39:08;6.07;;;1.90;;
10295;SDS011;5193;51.032;6.356;2023-11-19T02:41:37;12.33;;;2.70;;
10295;SDS011;5193;51.032;6.356;2023-11-19T02:44:04;7.30;;;1.70;;
10295;SDS011;5193;51.032;6.356;2023-11-19T02:46:34;9.20;;;1.90;;
10295;SDS011;5193;51.032;6.356;2023-11-19T02:49:02;10.40;;;1.83;;
10295;SDS011;5193;51.032;6.356;2023-11-19T02:54:53;7.33;;;1.67;;
10295;SDS011;5193;51.032;6.356;2023-11-19T02:57:19;10.33;;;1.70;;
10295;SDS011;5193;51.032;6.356;2023-11-19T02:59:47;7.77;;;2.07;;
10295;SDS011;5193;51.032;6.356;2023-11-19T03:02:13;10.77;;;1.90;;
10295;SDS011;5193;51.032;6.356;2023-11-19T03:04:41;8.10;;;1.87;;
10295;SDS011;5193;51.032;6.356;2023-11-19T03:07:08;8.77;;;2.07;;
10295;SDS011;5193;51.032;6.356;2023-11-19T03:09:37;8.63;;;2.23;;
10295;SDS011;5193;51.032;6.356;2023-11-19T03:12:05;7.20;;;1.83;;
10295;SDS011;5193;51.032;6.356;2023-11-19T03:14:33;11.97;;;2.30;;
10295;SDS011;5193;51.032;6.356;2023-11-19T03:17:02;12.43;;;3.07;;
10295;SDS011;5193;51.032;6.356;2023-11-19T03:19:30;20.17;;;3.10;;
10295;SDS011;5193;51.032;6.356;2023-11-19T03:21:55;10.00;;;2.20;;
10295;SDS011;5193;51.032;6.356;2023-11-19T03:24:21;6.40;;;1.30;;
10295;SDS011;5193;51.032;6.356;2023-11-19T03:26:48;16.57;;;2.47;;
10295;SDS011;5193;51.032;6.356;2023-11-19T03:29:15;11.80;;;2.43;;
10295;SDS011;5193;51.032;6.356;2023-11-19T03:31:44;10.53;;;1.67;;
10295;SDS011;5193;51.032;6.356;2023-11-19T03:34:10;11.73;;;2.50;;
10295;SDS011;5193;51.032;6.356;2023-11-19T03:36:35;17.10;;;2.43;;
10295;SDS011;5193;51.032;6.356;2023-11-19T03:39:04;4.77;;;2.10;;
10295;SDS011;5193;51.032;6.356;2023-11-19T03:41:31;13.93;;;2.47;;
10295;SDS011;5193;51.032;6.356;2023-11-19T03:44:00;11.27;;;2.37;;
10295;SDS011;5193;51.032;6.356;2023-11-19T03:46:25;7.63;;;1.80;;
10295;SDS011;5193;51.032;6.356;2023-11-19T03:48:52;9.90;;;2.20;;
10295;SDS011;5193;51.032;6.356;2023-11-19T03:51:21;16.00;;;2.50;;
10295;SDS011;5193;51.032;6.356;2023-11-19T03:53:50;11.53;;;2.20;;
10295;SDS011;5193;51.032;6.356;2023-11-19T03:56:19;10.03;;;2.20;;
10295;SDS011;5193;51.032;6.356;2023-11-19T03:58:46;12.47;;;2.30;;
10295;SDS011;5193;51.032;6.356;2023-11-19T04:01:12;12.00;;;2.40;;
10295;SDS011;5193;51.032;6.356;2023-11-19T04:03:40;13.70;;;2.93;;
10295;SDS011;5193;51.032;6.356;2023-11-19T04:06:13;15.20;;;2.17;;
10295;SDS011;5193;51.032;6.356;2023-11-19T04:08:46;12.23;;;2.07;;
10295;SDS011;5193;51.032;6.356;2023-11-19T04:11:11;13.20;;;2.93;;
10295;SDS011;5193;51.032;6.356;2023-11-19T04:13:37;14.47;;;2.77;;
10295;SDS011;5193;51.032;6.356;2023-11-19T04:16:02;15.53;;;2.77;;
10295;SDS011;5193;51.032;6.356;2023-11-19T04:18:29;12.07;;;2.43;;
10295;SDS011;5193;51.032;6.356;2023-11-19T04:20:57;14.27;;;2.40;;
10295;SDS011;5193;51.032;6.356;2023-11-19T04:23:22;18.13;;;3.23;;
10295;SDS011;5193;51.032;6.356;2023-11-19T04:25:49;10.70;;;2.60;;
10295;SDS011;5193;51.032;6.356;2023-11-19T04:28:15;16.10;;;3.23;;
10295;SDS011;5193;51.032;6.356;2023-11-19T04:30:41;13.07;;;2.93;;
10295;SDS011;5193;51.032;6.356;2023-11-19T04:33:10;16.63;;;3.80;;
10295;SDS011;5193;51.032;6.356;2023-11-19T04:35:37;15.30;;;3.17;;
10295;SDS011;5193;51.032;6.356;2023-11-19T04:38:03;12.33;;;2.87;;
10295;SDS011;5193;51.032;6.356;2023-11-19T04:40:28;18.03;;;3.30;;
10295;SDS011;5193;51.032;6.356;2023-11-19T04:42:55;13.60;;;2.33;;
10295;SDS011;5193;51.032;6.356;2023-11-19T04:45:21;10.63;;;1.87;;
10295;SDS011;5193;51.032;6.356;2023-11-19T04:47:50;16.40;;;3.40;;
10295;SDS011;5193;51.032;6.356;2023-11-19T04:50:15;13.00;;;3.33;;
10295;SDS011;5193;51.032;6.356;2023-11-19T04:52:41;13.70;;;2.87;;
10295;SDS011;5193;51.032;6.356;2023-11-19T04:55:12;18.80;;;2.40;;
10295;SDS011;5193;51.032;6.356;2023-11-19T04:57:39;11.43;;;2.60;;
10295;SDS011;5193;51.032;6.356;2023-11-19T05:00:05;21.80;;;3.50;;
10295;SDS011;5193;51.032;6.356;2023-11-19T05:02:32;12.70;;;2.70;;
10295;SDS011;5193;51.032;6.356;2023-11-19T05:04:59;11.47;;;2.20;;
10295;SDS011;5193;51.032;6.356;2023-11-19T05:07:29;14.00;;;2.47;;
10295;SDS011;5193;51.032;6.356;2023-11-19T05:09:55;12.93;;;2.27;;
10295;SDS011;5193;51.032;6.356;2023-11-19T05:12:21;15.20;;;2.70;;
10295;SDS011;5193;51.032;6.356;2023-11-19T05:14:47;18.23;;;3.43;;
10295;SDS011;5193;51.032;6.356;2023-11-19T05:17:17;17.67;;;2.57;;
10295;SDS011;5193;51.032;6.356;2023-11-19T05:19:46;15.77;;;3.00;;
10295;SDS011;5193;51.032;6.356;2023-11-19T05:22:16;10.33;;;2.60;;
10295;SDS011;5193;51.032;6.356;2023-11-19T05:24:45;19.07;;;3.00;;
10295;SDS011;5193;51.032;6.356;2023-11-19T05:27:11;14.97;;;3.00;;
10295;SDS011;5193;51.032;6.356;2023-11-19T05:29:38;17.70;;;2.47;;
10295;SDS011;5193;51.032;6.356;2023-11-19T05:32:04;13.40;;;3.70;;
10295;SDS011;5193;51.032;6.356;2023-11-19T05:34:30;16.00;;;2.73;;
10295;SDS011;5193;51.032;6.356;2023-11-19T05:36:56;12.87;;;2.60;;
10295;SDS011;5193;51.032;6.356;2023-11-19T05:39:22;17.27;;;3.60;;
10295;SDS011;5193;51.032;6.356;2023-11-19T05:41:49;15.37;;;3.00;;
10295;SDS011;5193;51.032;6.356;2023-11-19T05:44:18;14.33;;;3.40;;
10295;SDS011;5193;51.032;6.356;2023-11-19T05:46:45;13.00;;;2.93;;
10295;SDS011;5193;51.032;6.356;2023-11-19T05:49:11;22.67;;;2.93;;
10295;SDS011;5193;51.032;6.356;2023-11-19T05:51:40;21.20;;;3.10;;
10295;SDS011;5193;51.032;6.356;2023-11-19T05:54:12;17.63;;;3.17;;
10295;SDS011;5193;51.032;6.356;2023-11-19T06:00:04;28.97;;;3.03;;
10295;SDS011;5193;51.032;6.356;2023-11-19T06:02:33;14.37;;;3.17;;
10295;SDS011;5193;51.032;6.356;2023-11-19T06:04:59;16.70;;;3.47;;
10295;SDS011;5193;51.032;6.356;2023-11-19T06:07:27;16.03;;;2.43;;
10295;SDS011;5193;51.032;6.356;2023-11-19T06:09:53;17.47;;;3.47;;
10295;SDS011;5193;51.032;6.356;2023-11-19T06:12:18;11.03;;;4.17;;
10295;SDS011;5193;51.032;6.356;2023-11-19T06:14:46;15.97;;;3.80;;
10295;SDS011;5193;51.032;6.356;2023-11-19T06:17:14;18.33;;;3.17;;
10295;SDS011;5193;51.032;6.356;2023-11-19T06:19:39;17.93;;;3.17;;
10295;SDS011;5193;51.032;6.356;2023-11-19T06:22:05;20.33;;;3.63;;
10295;SDS011;5193;51.032;6.356;2023-11-19T06:24:31;22.43;;;3.47;;
10295;SDS011;5193;51.032;6.356;2023-11-19T06:26:58;13.30;;;2.93;;
10295;SDS011;5193;51.032;6.356;2023-11-19T06:29:24;17.23;;;3.10;;
10295;SDS011;5193;51.032;6.356;2023-11-19T06:31:49;15.27;;;3.20;;
10295;SDS011;5193;51.032;6.356;2023-11-19T06:34:16;24.33;;;3.70;;
10295;SDS011;5193;51.032;6.356;2023-11-19T06:36:44;19.50;;;3.87;;
10295;SDS011;5193;51.032;6.356;2023-11-19T06:39:10;16.00;;;2.80;;
10295;SDS011;5193;51.032;6.356;2023-11-19T06:41:36;12.40;;;2.77;;
10295;SDS011;5193;51.032;6.356;2023-11-19T06:44:03;25.97;;;4.70;;
10295;SDS011;5193;51.032;6.356;2023-11-19T06:46:33;21.90;;;3.27;;
10295;SDS011;5193;51.032;6.356;2023-11-19T06:49:01;20.03;;;3.90;;
10295;SDS011;5193;51.032;6.356;2023-11-19T06:51:27;30.57;;;4.43;;
10295;SDS011;5193;51.032;6.356;2023-11-19T06:53:55;21.60;;;3.83;;
10295;SDS011;5193;51.032;6.356;2023-11-19T06:56:21;18.47;;;4.17;;
10295;SDS011;5193;51.032;6.356;2023-11-19T06:58:47;14.27;;;3.43;;
10295;SDS011;5193;51.032;6.356;2023-11-19T07:01:17;22.87;;;3.47;;
10295;SDS011;5193;51.032;6.356;2023-11-19T07:03:46;18.73;;;3.53;;
10295;SDS011;5193;51.032;6.356;2023-11-19T07:06:12;18.07;;;2.90;;
10295;SDS011;5193;51.032;6.356;2023-11-19T07:08:39;26.83;;;5.20;;
10295;SDS011;5193;51.032;6.356;2023-11-19T07:11:13;22.83;;;4.30;;
10295;SDS011;5193;51.032;6.356;2023-11-19T07:13:44;21.63;;;4.13;;
10295;SDS011;5193;51.032;6.356;2023-11-19T07:16:13;26.07;;;4.20;;
10295;SDS011;5193;51.032;6.356;2023-11-19T07:18:40;20.07;;;3.90;;
10295;SDS011;5193;51.032;6.356;2023-11-19T07:21:06;20.83;;;3.93;;
10295;SDS011;5193;51.032;6.356;2023-11-19T07:23:35;21.77;;;4.23;;
10295;SDS011;5193;51.032;6.356;2023-11-19T07:26:01;20.77;;;3.60;;
10295;SDS011;5193;51.032;6.356;2023-11-19T07:28:30;19.43;;;3.50;;
10295;SDS011;5193;51.032;6.356;2023-11-19T07:30:57;16.23;;;3.07;;
10295;SDS011;5193;51.032;6.356;2023-11-19T07:33:24;13.87;;;2.57;;
10295;SDS011;5193;51.032;6.356;2023-11-19T07:35:50;22.30;;;4.20;;
10295;SDS011;5193;51.032;6.356;2023-11-19T07:38:16;20.87;;;4.23;;
10295;SDS011;5193;51.032;6.356;2023-11-19T07:40:48;24.23;;;5.20;;
10295;SDS011;5193;51.032;6.356;2023-11-19T07:43:14;19.40;;;3.40;;
10295;SDS011;5193;51.032;6.356;2023-11-19T07:45:40;26.60;;;5.53;;
10295;SDS011;5193;51.032;6.356;2023-11-19T07:48:08;29.93;;;4.80;;
10295;SDS011;5193;51.032;6.356;2023-11-19T07:50:34;26.37;;;4.17;;
10295;SDS011;5193;51.032;6.356;2023-11-19T07:53:00;19.73;;;3.33;;
10295;SDS011;5193;51.032;6.356;2023-11-19T07:55:29;26.50;;;3.63;;
10295;SDS011;5193;51.032;6.356;2023-11-19T07:57:54;19.60;;;4.50;;
10295;SDS011;5193;51.032;6.356;2023-11-19T08:00:21;20.03;;;2.90;;
10295;SDS011;5193;51.032;6.356;2023-11-19T08:02:49;21.87;;;3.63;;
10295;SDS011;5193;51.032;6.356;2023-11-19T08:05:25;25.67;;;2.97;;
10295;SDS011;5193;51.032;6.356;2023-11-19T08:07:57;15.47;;;2.77;;
10295;SDS011;5193;51.032;6.356;2023-11-19T08:10:23;23.47;;;3.47;;
10295;SDS011;5193;51.032;6.356;2023-11-19T08:12:49;11.23;;;2.70;;
10295;SDS011;5193;51.032;6.356;2023-11-19T08:15:14;19.83;;;3.07;;
10295;SDS011;5193;51.032;6.356;2023-11-19T08:17:43;20.40;;;4.20;;
10295;SDS011;5193;51.032;6.356;2023-11-19T08:20:13;24.87;;;3.80;;
10295;SDS011;5193;51.032;6.356;2023-11-19T08:22:39;15.87;;;2.90;;
10295;SDS011;5193;51.032;6.356;2023-11-19T08:25:05;11.43;;;2.37;;
10295;SDS011;5193;51.032;6.356;2023-11-19T08:27:32;11.13;;;2.17;;
10295;SDS011;5193;51.032;6.356;2023-11-19T08:29:58;15.27;;;3.10;;
10295;SDS011;5193;51.032;6.356;2023-11-19T08:32:37;15.30;;;2.83;;
10295;SDS011;5193;51.032;6.356;2023-11-19T08:35:03;13.17;;;3.10;;
10295;SDS011;5193;51.032;6.356;2023-11-19T08:37:28;30.37;;;4.10;;
10295;SDS011;5193;51.032;6.356;2023-11-19T08:39:54;18.40;;;2.90;;
10295;SDS011;5193;51.032;6.356;2023-11-19T08:42:27;22.20;;;4.53;;
10295;SDS011;5193;51.032;6.356;2023-11-19T08:44:56;18.37;;;3.53;;
10295;SDS011;5193;51.032;6.356;2023-11-19T08:47:21;18.53;;;2.93;;
10295;SDS011;5193;51.032;6.356;2023-11-19T08:49:48;20.30;;;4.03;;
10295;SDS011;5193;51.032;6.356;2023-11-19T08:52:20;22.10;;;3.30;;
10295;SDS011;5193;51.032;6.356;2023-11-19T08:54:45;23.90;;;4.10;;
10295;SDS011;5193;51.032;6.356;2023-11-19T08:57:11;26.13;;;4.17;;
10295;SDS011;5193;51.032;6.356;2023-11-19T08:59:40;18.50;;;4.30;;
10295;SDS011;5193;51.032;6.356;2023-11-19T09:02:05;23.47;;;4.33;;
10295;SDS011;5193;51.032;6.356;2023-11-19T09:04:32;21.50;;;3.40;;
10295;SDS011;5193;51.032;6.356;2023-11-19T09:06:58;23.27;;;4.17;;
10295;SDS011;5193;51.032;6.356;2023-11-19T09:09:24;21.57;;;4.07;;
10295;SDS011;5193;51.032;6.356;2023-11-19T09:11:50;15.37;;;3.67;;
10295;SDS011;5193;51.032;6.356;2023-11-19T09:14:19;10.93;;;2.63;;
10295;SDS011;5193;51.032;6.356;2023-11-19T09:16:50;14.00;;;2.47;;
10295;SDS011;5193;51.032;6.356;2023-11-19T09:19:16;22.77;;;4.53;;
10295;SDS011;5193;51.032;6.356;2023-11-19T09:21:43;20.80;;;4.27;;
10295;SDS011;5193;51.032;6.356;2023-11-19T09:24:08;27.83;;;4.13;;
10295;SDS011;5193;51.032;6.356;2023-11-19T09:26:34;10.10;;;2.10;;
10295;SDS011;5193;51.032;6.356;2023-11-19T09:29:01;26.30;;;4.17;;
10295;SDS011;5193;51.032;6.356;2023-11-19T09:31:27;21.33;;;3.27;;
10295;SDS011;5193;51.032;6.356;2023-11-19T09:33:52;29.67;;;4.53;;
10295;SDS011;5193;51.032;6.356;2023-11-19T09:36:18;25.33;;;4.63;;
10295;SDS011;5193;51.032;6.356;2023-11-19T09:38:44;28.33;;;4.50;;
10295;SDS011;5193;51.032;6.356;2023-11-19T09:41:11;21.57;;;3.83;;
10295;SDS011;5193;51.032;6.356;2023-11-19T09:43:41;25.93;;;4.80;;
10295;SDS011;5193;51.032;6.356;2023-11-19T09:46:11;26.17;;;4.03;;
10295;SDS011;5193;51.032;6.356;2023-11-19T09:48:40;26.97;;;4.03;;
10295;SDS011;5193;51.032;6.356;2023-11-19T09:51:07;16.17;;;2.97;;
10295;SDS011;5193;51.032;6.356;2023-11-19T09:53:34;14.43;;;3.20;;
10295;SDS011;5193;51.032;6.356;2023-11-19T09:56:01;18.90;;;3.40;;
10295;SDS011;5193;51.032;6.356;2023-11-19T09:58:29;16.33;;;3.00;;
10295;SDS011;5193;51.032;6.356;2023-11-19T10:00:56;13.27;;;3.47;;
10295;SDS011;5193;51.032;6.356;2023-11-19T10:03:28;20.90;;;3.77;;
10295;SDS011;5193;51.032;6.356;2023-11-19T10:06:07;10.30;;;2.83;;
10295;SDS011;5193;51.032;6.356;2023-11-19T10:08:39;21.33;;;2.77;;
10295;SDS011;5193;51.032;6.356;2023-11-19T10:11:06;21.63;;;3.47;;
10295;SDS011;5193;51.032;6.356;2023-11-19T10:13:36;21.83;;;3.47;;
10295;SDS011;5193;51.032;6.356;2023-11-19T10:16:12;14.93;;;3.53;;
10295;SDS011;5193;51.032;6.356;2023-11-19T10:18:50;12.93;;;2.87;;
10295;SDS011;5193;51.032;6.356;2023-11-19T10:21:22;21.37;;;3.30;;
10295;SDS011;5193;51.032;6.356;2023-11-19T10:23:53;22.47;;;4.13;;
10295;SDS011;5193;51.032;6.356;2023-11-19T10:26:25;25.40;;;3.73;;
10295;SDS011;5193;51.032;6.356;2023-11-19T10:28:52;20.43;;;4.30;;
10295;SDS011;5193;51.032;6.356;2023-11-19T10:31:23;23.87;;;3.97;;
10295;SDS011;5193;51.032;6.356;2023-11-19T10:33:51;21.03;;;3.30;;
10295;SDS011;5193;51.032;6.356;2023-11-19T10:36:20;12.67;;;3.10;;
10295;SDS011;5193;51.032;6.356;2023-11-19T10:38:56;22.23;;;3.20;;
10295;SDS011;5193;51.032;6.356;2023-11-19T10:41:34;18.30;;;3.43;;
10295;SDS011;5193;51.032;6.356;2023-11-19T10:44:00;22.37;;;3.30;;
10295;SDS011;5193;51.032;6.356;2023-11-19T10:46:38;14.70;;;3.77;;
10295;SDS011;5193;51.032;6.356;2023-11-19T10:49:05;18.17;;;3.03;;
10295;SDS011;5193;51.032;6.356;2023-11-19T10:51:31;10.33;;;1.83;;
10295;SDS011;5193;51.032;6.356;2023-11-19T10:54:17;18.13;;;3.80;;
10295;SDS011;5193;51.032;6.356;2023-11-19T10:56:44;22.23;;;3.27;;
10295;SDS011;5193;51.032;6.356;2023-11-19T10:59:18;19.33;;;3.20;;
10295;SDS011;5193;51.032;6.356;2023-11-19T11:05:11;20.97;;;3.37;;
10295;SDS011;5193;51.032;6.356;2023-11-19T11:08:02;24.60;;;4.47;;
10295;SDS011;5193;51.032;6.356;2023-11-19T11:10:30;15.10;;;2.87;;
10295;SDS011;5193;51.032;6.356;2023-11-19T11:13:02;18.97;;;3.57;;
10295;SDS011;5193;51.032;6.356;2023-11-19T11:15:29;11.97;;;2.50;;
10295;SDS011;5193;51.032;6.356;2023-11-19T11:17:57;18.70;;;3.00;;
10295;SDS011;5193;51.032;6.356;2023-11-19T11:20:30;16.40;;;2.73;;
10295;SDS011;5193;51.032;6.356;2023-11-19T11:34:04;10.43;;;2.30;;
10295;SDS011;5193;51.032;6.356;2023-11-19T11:40:05;16.83;;;3.30;;
10295;SDS011;5193;51.032;6.356;2023-11-19T11:42:35;11.23;;;2.57;;
10295;SDS011;5193;51.032;6.356;2023-11-19T11:50:25;17.33;;;3.10;;
10295;SDS011;5193;51.032;6.356;2023-11-19T11:58:31;7.70;;;2.27;;
10295;SDS011;5193;51.032;6.356;2023-11-19T12:01:04;12.20;;;2.23;;
10295;SDS011;5193;51.032;6.356;2023-11-19T12:03:33;13.00;;;2.80;;
10295;SDS011;5193;51.032;6.356;2023-11-19T12:05:59;19.67;;;3.20;;
10295;SDS011;5193;51.032;6.356;2023-11-19T12:08:25;14.80;;;2.43;;
10295;SDS011;5193;51.032;6.356;2023-11-19T12:10:55;14.90;;;3.47;;
10295;SDS011;5193;51.032;6.356;2023-11-19T12:16:27;20.97;;;3.10;;
10295;SDS011;5193;51.032;6.356;2023-11-19T12:18:54;14.50;;;3.47;;
10295;SDS011;5193;51.032;6.356;2023-11-19T12:21:27;15.63;;;3.47;;
10295;SDS011;5193;51.032;6.356;2023-11-19T12:23:58;13.33;;;3.13;;
10295;SDS011;5193;51.032;6.356;2023-11-19T12:26:35;17.17;;;3.90;;
10295;SDS011;5193;51.032;6.356;2023-11-19T12:29:03;16.93;;;2.27;;
10295;SDS011;5193;51.032;6.356;2023-11-19T12:31:32;17.03;;;3.17;;
10295;SDS011;5193;51.032;6.356;2023-11-19T12:34:00;12.73;;;2.73;;
10295;SDS011;5193;51.032;6.356;2023-11-19T12:36:35;16.80;;;2.80;;
10295;SDS011;5193;51.032;6.356;2023-11-19T12:39:04;18.87;;;3.27;;
10295;SDS011;5193;51.032;6.356;2023-11-19T12:41:30;14.27;;;2.33;;
10295;SDS011;5193;51.032;6.356;2023-11-19T12:44:08;12.90;;;3.23;;
10295;SDS011;5193;51.032;6.356;2023-11-19T12:46:37;11.73;;;3.43;;
10295;SDS011;5193;51.032;6.356;2023-11-19T12:49:05;17.93;;;2.93;;
10295;SDS011;5193;51.032;6.356;2023-11-19T12:51:31;12.10;;;2.03;;
10295;SDS011;5193;51.032;6.356;2023-11-19T12:54:03;16.73;;;3.63;;
10295;SDS011;5193;51.032;6.356;2023-11-19T12:56:29;14.37;;;2.83;;
10295;SDS011;5193;51.032;6.356;2023-11-19T12:58:55;15.90;;;3.30;;
10295;SDS011;5193;51.032;6.356;2023-11-19T13:01:22;18.47;;;3.23;;
10295;SDS011;5193;51.032;6.356;2023-11-19T13:03:48;16.33;;;3.17;;
10295;SDS011;5193;51.032;6.356;2023-11-19T13:06:15;16.17;;;2.70;;
10295;SDS011;5193;51.032;6.356;2023-11-19T13:08:47;12.57;;;2.90;;
10295;SDS011;5193;51.032;6.356;2023-11-19T13:11:39;14.83;;;3.43;;
10295;SDS011;5193;51.032;6.356;2023-11-19T13:14:05;21.90;;;3.23;;
10295;SDS011;5193;51.032;6.356;2023-11-19T13:16:51;18.37;;;3.13;;
10295;SDS011;5193;51.032;6.356;2023-11-19T13:19:18;19.63;;;2.50;;
10295;SDS011;5193;51.032;6.356;2023-11-19T13:21:45;14.83;;;3.50;;
10295;SDS011;5193;51.032;6.356;2023-11-19T13:24:13;16.73;;;3.63;;
10295;SDS011;5193;51.032;6.356;2023-11-19T13:26:39;22.57;;;3.77;;
10295;SDS011;5193;51.032;6.356;2023-11-19T13:29:05;6.30;;;2.00;;
10295;SDS011;5193;51.032;6.356;2023-11-19T13:31:30;16.20;;;2.63;;
10295;SDS011;5193;51.032;6.356;2023-11-19T13:33:56;15.70;;;3.13;;
10295;SDS011;5193;51.032;6.356;2023-11-19T13:36:23;20.43;;;3.23;;
10295;SDS011;5193;51.032;6.356;2023-11-19T13:38:50;14.57;;;3.30;;
10295;SDS011;5193;51.032;6.356;2023-11-19T13:41:16;20.57;;;3.00;;
10295;SDS011;5193;51.032;6.356;2023-11-19T13:43:42;20.53;;;3.87;;
10295;SDS011;5193;51.032;6.356;2023-11-19T13:46:11;18.17;;;3.37;;
10295;SDS011;5193;51.032;6.356;2023-11-19T13:48:37;19.07;;;3.30;;
10295;SDS011;5193;51.032;6.356;2023-11-19T13:51:04;18.87;;;3.43;;
10295;SDS011;5193;51.032;6.356;2023-11-19T13:53:33;18.93;;;3.77;;
10295;SDS011;5193;51.032;6.356;2023-11-19T13:55:59;14.67;;;3.20;;
10295;SDS011;5193;51.032;6.356;2023-11-19T13:58:27;14.30;;;2.77;;
10295;SDS011;5193;51.032;6.356;2023-11-19T14:00:52;20.60;;;3.10;;
10295;SDS011;5193;51.032;6.356;2023-11-19T14:03:18;24.97;;;4.40;;
10295;SDS011;5193;51.032;6.356;2023-11-19T14:05:47;12.77;;;2.37;;
10295;SDS011;5193;51.032;6.356;2023-11-19T14:08:17;9.10;;;2.23;;
10295;SDS011;5193;51.032;6.356;2023-11-19T14:10:43;13.13;;;2.07;;
10295;SDS011;5193;51.032;6.356;2023-11-19T14:13:08;12.03;;;2.03;;
10295;SDS011;5193;51.032;6.356;2023-11-19T14:15:37;6.73;;;1.57;;
10295;SDS011;5193;51.032;6.356;2023-11-19T14:18:04;11.40;;;3.30;;
10295;SDS011;5193;51.032;6.356;2023-11-19T14:20:30;6.50;;;1.63;;
10295;SDS011;5193;51.032;6.356;2023-11-19T14:22:57;14.47;;;3.27;;
10295;SDS011;5193;51.032;6.356;2023-11-19T14:25:23;11.63;;;1.90;;
10295;SDS011;5193;51.032;6.356;2023-11-19T14:27:50;17.43;;;3.17;;
10295;SDS011;5193;51.032;6.356;2023-11-19T14:30:17;7.03;;;2.17;;
10295;SDS011;5193;51.032;6.356;2023-11-19T14:32:43;19.30;;;3.23;;
10295;SDS011;5193;51.032;6.356;2023-11-19T14:35:10;12.30;;;3.03;;
10295;SDS011;5193;51.032;6.356;2023-11-19T14:37:37;13.53;;;2.70;;
10295;SDS011;5193;51.032;6.356;2023-11-19T14:40:02;9.00;;;2.53;;
10295;SDS011;5193;51.032;6.356;2023-11-19T14:42:35;19.60;;;3.30;;
10295;SDS011;5193;51.032;6.356;2023-11-19T14:45:04;19.47;;;3.33;;
10295;SDS011;5193;51.032;6.356;2023-11-19T14:47:41;18.27;;;3.57;;
10295;SDS011;5193;51.032;6.356;2023-11-19T14:50:11;14.27;;;2.73;;
10295;SDS011;5193;51.032;6.356;2023-11-19T14:52:40;15.97;;;3.33;;
10295;SDS011;5193;51.032;6.356;2023-11-19T14:55:06;19.60;;;3.00;;
10295;SDS011;5193;51.032;6.356;2023-11-19T14:57:32;20.17;;;3.50;;
10295;SDS011;5193;51.032;6.356;2023-11-19T15:00:02;16.33;;;4.07;;
10295;SDS011;5193;51.032;6.356;2023-11-19T15:02:37;11.73;;;2.57;;
10295;SDS011;5193;51.032;6.356;2023-11-19T15:05:04;14.20;;;2.93;;
10295;SDS011;5193;51.032;6.356;2023-11-19T15:07:33;18.27;;;3.60;;
10295;SDS011;5193;51.032;6.356;2023-11-19T15:10:03;17.03;;;3.00;;
10295;SDS011;5193;51.032;6.356;2023-11-19T15:12:38;21.43;;;4.10;;
10295;SDS011;5193;51.032;6.356;2023-11-19T15:15:08;13.83;;;2.20;;
10295;SDS011;5193;51.032;6.356;2023-11-19T15:17:40;15.47;;;2.93;;
10295;SDS011;5193;51.032;6.356;2023-11-19T15:20:06;12.67;;;2.40;;
10295;SDS011;5193;51.032;6.356;2023-11-19T15:22:32;20.40;;;3.27;;
10295;SDS011;5193;51.032;6.356;2023-11-19T15:24:58;25.77;;;3.87;;
10295;SDS011;5193;51.032;6.356;2023-11-19T15:27:35;16.70;;;3.17;;
10295;SDS011;5193;51.032;6.356;2023-11-19T15:30:02;14.43;;;2.97;;
10295;SDS011;5193;51.032;6.356;2023-11-19T15:32:28;16.63;;;3.83;;
10295;SDS011;5193;51.032;6.356;2023-11-19T15:34:56;17.63;;;4.37;;
10295;SDS011;5193;51.032;6.356;2023-11-19T15:37:23;12.40;;;2.77;;